Fecha, hora, temperatura, viento dirección y velocidad, humedad y presión.

  • 11-04-2019 21:00:00 | 19.80°C | Oeste |18.00 km/h | 35.00% | 1015.50 hPa
  • 11-04-2019 20:00:00 | 21.60°C | Noroeste |18.00 km/h | 27.00% | 1015.20 hPa
  • 11-04-2019 19:00:00 | 22.30°C | Noroeste |22.00 km/h | 25.00% | 1015.40 hPa
  • 11-04-2019 18:00:00 | 22.90°C | Noroeste |18.00 km/h | 28.00% | 1015.20 hPa
  • 11-04-2019 17:00:00 | 22.60°C | Noroeste |19.00 km/h | 31.00% | 1015.10 hPa
  • 11-04-2019 16:00:00 | 22.60°C | Noroeste |17.00 km/h | 31.00% | 1015.60 hPa
  • 11-04-2019 15:00:00 | 22.70°C | Noroeste |18.00 km/h | 30.00% | 1016.00 hPa
  • 11-04-2019 14:00:00 | 21.70°C | Noroeste |19.00 km/h | 32.00% | 1016.50 hPa
  • 11-04-2019 13:00:00 | 20.80°C | Oeste |20.00 km/h | 36.00% | 1016.90 hPa
  • 11-04-2019 12:00:00 | 19.40°C | Oeste |23.00 km/h | 40.00% | 1017.30 hPa
  • 11-04-2019 11:00:00 | 17.40°C | Oeste |18.00 km/h | 47.00% | 1017.30 hPa
  • 11-04-2019 10:00:00 | 15.90°C | Oeste |15.00 km/h | 52.00% | 1017.40 hPa
  • 11-04-2019 09:00:00 | 14.10°C | Oeste |17.00 km/h | 59.00% | 1017.50 hPa
  • 11-04-2019 08:00:00 | 12.10°C | Oeste |15.00 km/h | 65.00% | 1017.10 hPa
  • 11-04-2019 07:00:00 | 13.10°C | Oeste |14.00 km/h | 61.00% | 1016.80 hPa
  • 11-04-2019 06:00:00 | 14.10°C | Noroeste |9.00 km/h | 57.00% | 1016.80 hPa
  • 11-04-2019 05:00:00 | 14.10°C | Oeste |18.00 km/h | 56.00% | 1016.80 hPa
  • 11-04-2019 04:00:00 | 13.90°C | Oeste |14.00 km/h | 56.00% | 1016.70 hPa
  • 11-04-2019 03:00:00 | 14.30°C | Oeste |15.00 km/h | 55.00% | 1016.90 hPa
  • 11-04-2019 02:00:00 | 14.40°C | Noroeste |10.00 km/h | 61.00% | 1017.10 hPa
  • 11-04-2019 01:00:00 | 16.00°C | Noroeste |12.00 km/h | 54.00% | 1016.90 hPa
  • 11-04-2019 00:00:00 | 16.70°C | Oeste |14.00 km/h | 53.00% | 1016.60 hPa
  • 10-04-2019 23:00:00 | 17.00°C | Oeste |12.00 km/h | 48.00% | 1016.50 hPa
  • 10-04-2019 22:00:00 | 17.60°C | Sudoeste |5.00 km/h | 44.00% | 1015.80 hPa
    • diseño web asturias Información sobre el estado de las mareas, altura de la marejada, temperatura del agua y otros datos de Gijón en Asturias.

      Surf Gijón